Latest Weather Observations for Rhyll

IDV60901

Issued at 12:31 pm EDT Thursday 21 March 2019 (issued every 10 minutes, with the page automatically refreshed every 10 minutes)

About weather observations | Map of Melbourne area stations | Latest observations for Melbourne area | Other Formats
Station Details ID: 086373 Name: RHYLL Lat: -38.46 Lon: 145.31 Height: 13.4 m
Data from the previous 72 hours. | See also: Recent months at Rhyll
Date/Time
EDT
Temp
°C
App
Temp
°C
Dew
Point
°C
Rel
Hum
%
Delta-T
°C
Wind Press
QNH
hPa
Press
MSL
hPa
Rain since
9am
mm
Dir  Spd
km/h
Gust
km/h
Spd
kts
Gust
kts
21/12:30pm 21.6 23.0 18.6 83 1.9 S 9 13 5 7 1016.9 1016.9 0.0
21/12:00pm 21.4 23.3 18.6 84 1.8 S 6 9 3 5 1017.1 1017.1 0.0
21/11:30am 21.3 23.1 18.3 83 1.9 SSE 6 13 3 7 1017.2 1017.2 0.0
21/11:00am 21.0 23.1 18.2 84 1.7 SE 4 7 2 4 1017.4 1017.4 0.0
21/10:30am 20.4 22.1 18.0 86 1.5 SE 6 7 3 4 1017.3 1017.3 0.0
21/10:00am 20.3 22.0 18.4 89 1.2 SE 7 11 4 6 1017.2 1017.2 0.0
21/09:30am 20.0 21.1 18.1 89 1.2 SE 9 15 5 8 1016.9 1016.9 0.0
21/09:00am 19.7 20.3 17.8 89 1.2 SE 11 15 6 8 1016.6 1016.6 0.0
21/08:30am 19.7 19.2 17.8 89 1.2 SE 17 24 9 13 1016.4 1016.4 0.0
21/08:00am 19.6 19.4 17.7 89 1.2 SE 15 20 8 11 1016.2 1016.2 0.0
21/07:30am 19.4 19.9 17.4 88 1.2 SSE 11 13 6 7 1015.8 1015.8 0.0
21/07:00am 19.3 20.1 17.3 88 1.2 SE 9 13 5 7 1015.5 1015.5 0.0
21/06:30am 19.3 19.8 17.4 89 1.2 SE 11 15 6 8 1015.3 1015.3 0.0
21/06:00am 19.2 20.0 17.3 89 1.2 SE 9 13 5 7 1015.1 1015.1 0.0
21/05:30am 19.1 18.0 17.4 90 1.0 SE 19 22 10 12 1014.9 1014.9 0.0
21/05:00am 19.1 19.3 17.6 91 0.9 SE 13 17 7 9 1014.9 1014.9 0.0
21/04:30am 18.9 19.7 17.2 90 1.0 SSE 9 17 5 9 1014.7 1014.7 0.0
21/04:00am 18.7 19.0 17.0 90 1.0 SE 11 15 6 8 1014.6 1014.6 0.0
21/03:30am 18.8 19.4 16.9 89 1.1 SE 9 11 5 6 1014.7 1014.7 0.0
21/03:00am 18.9 19.6 17.0 89 1.1 SE 9 13 5 7 1015.0 1015.0 0.0
21/02:30am 18.9 19.6 17.0 89 1.1 SE 9 17 5 9 1015.2 1015.2 0.0
21/02:00am 19.1 19.5 17.2 89 1.2 SSE 11 15 6 8 1015.5 1015.5 0.0
21/01:30am 19.1 19.4 17.1 88 1.2 SSE 11 15 6 8 1015.6 1015.6 0.0
21/01:00am 19.3 20.1 17.3 88 1.2 SE 9 13 5 7 1015.7 1015.7 0.0
21/12:30am 19.4 20.2 17.2 87 1.3 SE 9 13 5 7 1015.8 1015.8 0.0
21/12:00am 19.6 20.1 17.4 87 1.3 SE 11 13 6 7 1015.9 1015.9 0.0
 
Date/Time
EDT
Temp
°C
App
Temp
°C
Dew
Point
°C
Rel
Hum
%
Delta-T
°C
Wind Press
QNH
hPa
Press
MSL
hPa
Rain since
9am
mm
Dir  Spd
km/h
Gust
km/h
Spd
kts
Gust
kts
20/11:30pm 19.7 19.5 17.7 88 1.2 SE 15 19 8 10 1015.9 1015.9 0.0
20/11:00pm 19.9 19.7 17.7 87 1.4 SE 15 20 8 11 1015.9 1015.9 0.0
20/10:30pm 20.1 20.7 17.7 86 1.5 SE 11 15 6 8 1016.0 1016.0 0.0
20/10:00pm 20.3 21.0 17.9 86 1.5 SE 11 13 6 7 1015.9 1015.9 0.0
20/09:30pm 20.3 20.6 17.9 86 1.5 SE 13 17 7 9 1015.8 1015.8 0.0
20/09:00pm 20.3 20.5 17.7 85 1.6 SE 13 19 7 10 1015.5 1015.5 0.0
20/08:30pm 20.5 20.8 17.9 85 1.6 SSE 13 17 7 9 1015.3 1015.3 0.0
20/08:00pm 20.2 20.6 18.1 88 1.3 SSE 13 17 7 9 1015.2 1015.2 0.0
20/07:30pm 20.4 20.4 18.2 87 1.4 SSE 15 20 8 11 1014.9 1014.9 0.0
20/07:00pm 20.6 19.9 18.2 86 1.5 SSE 19 24 10 13 1014.6 1014.6 0.0
20/06:30pm 21.3 20.4 18.3 83 1.9 SSE 20 28 11 15 1014.4 1014.4 0.0
20/06:00pm 22.2 21.4 18.0 77 2.6 SSE 19 30 10 16 1014.4 1014.4 0.0
20/05:30pm 23.3 24.3 18.6 75 3.0 S 11 19 6 10 1014.3 1014.3 0.0
20/05:00pm 23.4 24.6 19.1 77 2.7 S 11 17 6 9 1014.2 1014.2 0.0
20/04:30pm 23.6 24.1 18.3 72 3.3 S 13 17 7 9 1014.2 1014.2 0.0
20/04:00pm 22.4 22.4 18.2 77 2.6 SSE 15 19 8 10 1014.3 1014.3 0.0
20/03:30pm 22.8 23.4 18.6 77 2.6 SSE 13 19 7 10 1014.3 1014.3 0.0
20/03:00pm 21.6 21.6 18.0 80 2.2 SSE 15 19 8 10 1014.6 1014.6 0.0
20/02:30pm 20.8 19.8 17.6 82 2.0 SSE 19 22 10 12 1015.0 1015.0 0.0
20/02:00pm 21.3 20.9 18.1 82 2.0 SSE 17 20 9 11 1015.3 1015.3 0.0
20/01:30pm 20.5 20.0 17.9 85 1.6 SSE 17 22 9 12 1015.6 1015.6 0.0
20/01:00pm 20.4 19.9 17.8 85 1.6 SSE 17 22 9 12 1015.9 1015.9 0.0
20/12:30pm 20.1 19.6 17.9 87 1.4 SSE 17 22 9 12 1016.2 1016.2 0.0
20/12:00pm 20.2 19.8 18.0 87 1.4 SSE 17 22 9 12 1016.2 1016.2 0.0
20/11:30am 20.1 20.1 18.1 88 1.2 SSE 15 19 8 10 1016.4 1016.4 0.0
20/11:00am 20.1 19.7 18.1 88 1.2 SSE 17 22 9 12 1016.3 1016.3 0.0
20/10:30am 20.1 20.1 18.1 88 1.2 SSE 15 19 8 10 1016.4 1016.4 0.0
20/10:00am 20.2 20.5 18.0 87 1.4 SSE 13 20 7 11 1016.2 1016.2 0.0
20/09:30am 20.1 20.9 18.1 88 1.2 SSE 11 15 6 8 1016.0 1016.0 0.0
20/09:00am 19.7 20.8 18.0 90 1.0 SSE 9 11 5 6 1015.9 1015.9 0.0
20/08:30am 19.3 19.9 17.8 91 0.9 SSE 11 15 6 8 1015.6 1015.6 0.0
20/08:00am 19.2 19.1 17.9 92 0.8 SSE 15 17 8 9 1015.2 1015.2 0.0
20/07:30am 19.0 18.9 17.8 93 0.7 SSE 15 19 8 10 1015.0 1015.0 0.0
20/07:00am 19.0 19.6 17.8 93 0.7 SSE 11 15 6 8 1014.8 1014.8 0.0
20/06:30am 19.1 20.2 17.9 93 0.7 SE 9 13 5 7 1014.7 1014.7 0.0
20/06:00am 19.1 19.8 17.9 93 0.7 SE 11 20 6 11 1014.4 1014.4 0.0
20/05:30am 19.1 20.2 17.9 93 0.7 SE 9 11 5 6 1014.4 1014.4 0.0
20/05:00am 18.9 19.5 17.7 93 0.7 SE 11 15 6 8 1014.3 1014.3 0.0
20/04:30am 18.9 19.4 17.4 91 0.9 SSE 11 15 6 8 1014.2 1014.2 0.0
20/04:00am 19.2 20.6 17.9 92 0.8 SE 7 9 4 5 1014.2 1014.2 0.0
20/03:30am 19.1 19.7 17.6 91 0.9 SE 11 15 6 8 1014.2 1014.2 0.0
20/03:00am 19.2 18.7 17.9 92 0.8 ESE 17 20 9 11 1014.5 1014.5 0.0
20/02:30am 19.1 20.5 17.9 93 0.7 SE 7 11 4 6 1014.7 1014.7 0.0
20/02:00am 19.2 20.7 18.0 93 0.7 SE 7 11 4 6 1014.8 1014.8 0.0
20/01:30am 19.3 20.1 18.1 93 0.7 SSE 11 13 6 7 1015.1 1015.1 0.0
20/01:00am 19.3 20.4 18.1 93 0.7 SSE 9 13 5 7 1015.3 1015.3 0.0
20/12:30am 19.3 20.1 18.1 93 0.7 SSE 11 15 6 8 1015.6 1015.6 0.0
20/12:00am 19.3 20.4 18.1 93 0.7 S 9 13 5 7 1015.9 1015.9 0.0
 
Date/Time
EDT
Temp
°C
App
Temp
°C
Dew
Point
°C
Rel
Hum
%
Delta-T
°C
Wind Press
QNH
hPa
Press
MSL
hPa
Rain since
9am
mm
Dir  Spd
km/h
Gust
km/h
Spd
kts
Gust
kts
19/11:30pm 19.2 19.9 18.0 93 0.7 SSE 11 17 6 9 1016.2 1016.2 0.0
19/11:00pm 19.0 19.6 17.8 93 0.7 SSE 11 17 6 9 1016.4 1016.4 0.0
19/10:30pm 19.0 19.6 17.8 93 0.7 S 11 17 6 9 1016.4 1016.4 0.0
19/10:00pm 19.0 20.0 17.8 93 0.7 S 9 13 5 7 1016.3 1016.3 0.0
19/09:30pm 18.9 18.7 17.7 93 0.7 S 15 22 8 12 1016.1 1016.1 0.0
19/09:00pm 18.9 18.7 17.6 92 0.8 SSE 15 22 8 12 1015.9 1015.9 0.0
19/08:30pm 18.9 18.3 17.6 92 0.8 SSE 17 22 9 12 1015.7 1015.7 0.0
19/08:00pm 18.9 17.8 17.4 91 0.9 SSE 19 24 10 13 1015.6 1015.6 0.0
19/07:30pm 18.9 18.1 17.2 90 1.0 SSE 17 22 9 12 1015.4 1015.4 0.0
19/07:00pm 19.0 18.2 17.1 89 1.2 SSE 17 28 9 15 1015.4 1015.4 0.0
19/06:30pm 19.1 17.6 16.7 86 1.4 SSE 20 28 11 15 1015.2 1015.2 0.0
19/06:00pm 19.5 18.1 17.1 86 1.5 SSE 20 33 11 18 1015.0 1015.0 0.0
19/05:30pm 19.4 16.7 16.6 84 1.7 SSE 26 37 14 20 1015.0 1015.0 0.0
19/05:00pm 19.7 17.5 16.9 84 1.7 SSE 24 32 13 17 1015.0 1015.0 0.0
19/04:30pm 20.3 17.8 17.1 82 1.9 SSE 26 33 14 18 1015.1 1015.1 0.0
19/04:00pm 20.9 18.9 17.5 81 2.1 SSE 24 33 13 18 1015.2 1015.2 0.0
19/03:30pm 20.6 19.1 17.6 83 1.8 SSE 22 30 12 16 1015.4 1015.4 0.0
19/03:00pm 21.2 19.6 17.4 79 2.3 SSE 22 33 12 18 1015.5 1015.5 0.0
19/02:30pm 20.9 18.9 17.5 81 2.1 SSE 24 32 13 17 1015.8 1015.8 0.0
19/02:00pm 21.3 19.7 17.5 79 2.3 SSE 22 30 12 16 1016.0 1016.0 0.0
19/01:30pm 21.2 18.7 17.0 77 2.6 SSE 26 33 14 18 1016.3 1016.3 0.0
19/01:00pm 21.5 19.4 17.1 76 2.7 SSE 24 32 13 17 1016.6 1016.6 0.0
19/12:30pm 21.2 19.8 17.0 77 2.6 SSE 20 28 11 15 1016.8 1016.8 0.0
19/12:00pm 20.4 19.3 17.2 82 2.0 SSE 19 22 10 12 1017.1 1017.1 0.0
19/11:30am 20.4 19.0 17.0 81 2.1 SSE 20 26 11 14 1017.4 1017.4 0.0
19/11:00am 19.9 19.2 17.3 85 1.6 SSE 17 22 9 12 1017.5 1017.5 0.0
19/10:30am 19.6 19.4 16.8 84 1.7 SE 13 17 7 9 1017.4 1017.4 0.0
19/10:00am 19.3 19.1 16.7 85 1.6 SE 13 20 7 11 1017.4 1017.4 0.0
19/09:30am 19.0 18.8 16.8 87 1.3 SE 13 24 7 13 1017.2 1017.2 0.0
19/09:00am 18.8 17.5 16.8 88 1.2 SE 19 24 10 13 1017.0 1017.0 0.0
19/08:30am 18.5 15.8 16.7 89 1.1 ESE 26 32 14 17 1016.6 1016.6 0.0
19/08:00am 18.3 15.2 16.6 90 1.0 SE 28 37 15 20 1016.2 1016.2 0.0
19/07:30am 18.1 14.2 16.4 90 1.0 ESE 32 41 17 22 1016.0 1016.0 0.0
19/07:00am 18.1 14.3 16.6 91 0.9 SE 32 39 17 21 1015.7 1015.7 0.0
19/06:30am 18.1 15.5 16.8 92 0.8 SE 26 35 14 19 1015.6 1015.6 0.0
19/06:00am 18.3 16.9 17.0 92 0.8 SE 20 30 11 16 1015.8 1015.8 0.0
19/05:30am 18.2 15.9 16.7 91 0.9 SE 24 33 13 18 1015.7 1015.7 0.0
19/05:00am 18.4 16.9 16.7 90 1.0 SE 20 30 11 16 1015.6 1015.6 0.0
19/04:30am 18.4 16.9 16.7 90 1.0 SE 20 30 11 16 1015.7 1015.7 0.0
19/04:00am 18.4 17.0 16.6 89 1.1 SE 19 24 10 13 1016.0 1016.0 0.0
19/03:30am 18.4 14.9 16.4 88 1.2 SE 30 35 16 19 1016.1 1016.1 0.0
19/03:00am 18.4 15.2 16.4 88 1.2 SE 28 33 15 18 1016.4 1016.4 0.0
19/02:30am 18.4 16.8 16.4 88 1.2 SE 20 28 11 15 1016.4 1016.4 0.0
19/02:00am 18.4 14.2 16.2 87 1.3 ESE 33 39 18 21 1016.1 1016.1 0.0
19/01:30am 18.4 14.2 16.2 87 1.3 ESE 33 39 18 21 1016.4 1016.4 0.0
19/01:00am 18.6 13.7 16.4 87 1.3 ESE 37 41 20 22 1016.5 1016.5 0.0
19/12:30am 18.6 14.7 16.4 87 1.3 ESE 32 37 17 20 1016.9 1016.9 0.0
19/12:00am 18.7 15.1 16.3 86 1.4 ESE 30 33 16 18 1017.3 1017.3 0.0
 
Date/Time
EDT
Temp
°C
App
Temp
°C
Dew
Point
°C
Rel
Hum
%
Delta-T
°C
Wind Press
QNH
hPa
Press
MSL
hPa
Rain since
9am
mm
Dir  Spd
km/h
Gust
km/h
Spd
kts
Gust
kts
18/11:30pm 18.5 14.9 16.3 87 1.3 ESE 30 35 16 19 1017.5 1017.5 0.0
18/11:00pm 18.4 14.3 16.0 86 1.4 SE 32 35 17 19 1017.6 1017.6 0.0
18/10:30pm 18.5 14.3 16.1 86 1.4 ESE 33 39 18 21 1017.4 1017.4 0.0
18/10:00pm 18.3 13.9 15.7 85 1.5 SE 33 39 18 21 1017.6 1017.6 0.0
18/09:30pm 18.5 13.4 15.7 84 1.7 ESE 37 44 20 24 1017.3 1017.3 0.0
18/09:00pm 18.9 13.1 16.0 83 1.7 ESE 41 48 22 26 1016.9 1016.9 0.0
18/08:30pm 19.1 14.1 16.0 82 1.8 SE 37 44 20 24 1016.8 1016.8 0.0
18/08:00pm 19.4 14.3 15.7 79 2.2 SE 37 46 20 25 1016.4 1016.4 0.0
18/07:30pm 19.9 16.1 15.7 77 2.5 SE 30 43 16 23 1016.3 1016.3 0.0
18/07:00pm 20.7 16.5 16.1 75 2.8 SE 33 41 18 22 1016.2 1016.2 0.0
18/06:30pm 21.5 16.9 16.2 72 3.2 SE 35 41 19 22 1015.9 1015.9 0.0
18/06:00pm 22.0 17.4 16.1 69 3.6 ESE 35 43 19 23 1015.8 1015.8 0.0
18/05:30pm 22.6 17.8 16.6 69 3.7 ESE 37 43 20 23 1015.7 1015.7 0.0
18/05:00pm 23.0 18.5 16.5 67 4.0 SE 35 41 19 22 1015.6 1015.6 0.0
18/04:30pm 23.5 19.7 16.8 66 4.1 ESE 32 39 17 21 1015.7 1015.7 0.0
18/04:00pm 23.8 20.0 16.6 64 4.4 ESE 32 39 17 21 1015.8 1015.8 0.0
18/03:30pm 24.0 20.9 16.5 63 4.6 ESE 28 35 15 19 1016.0 1016.0 0.0
18/03:00pm 24.2 21.7 17.0 64 4.4 ESE 26 33 14 18 1016.2 1016.2 0.0
18/02:30pm 23.7 21.0 16.5 64 4.4 ESE 26 32 14 17 1016.7 1016.7 0.0
18/02:00pm 23.3 20.5 16.4 65 4.2 ESE 26 35 14 19 1017.1 1017.1 0.0
18/01:30pm 23.6 21.6 16.4 64 4.4 SE 22 28 12 15 1017.5 1017.5 0.0
18/01:00pm 24.1 22.5 16.6 63 4.6 ESE 20 24 11 13 1017.7 1017.7 0.0

Latest Capital City Observations: Canberra | Sydney | Melbourne | Brisbane | Adelaide | Perth | Hobart | Darwin

Other formats

Comma delimited format used in spreadsheet applications
http://www.bom.gov.au/fwo/IDV60901/IDV60901.94892.axf

JavaScript Object Notation format (JSON) in row-major order
http://www.bom.gov.au/fwo/IDV60901/IDV60901.94892.json

Data quality

Most of these data are generated automatically and are frequently updated. Quality checks on data are not normally performed. It is possible for incorrect values to appear. Refer to information at About Latest Weather Observations and please check the disclaimer before using these data.